sensor_id;sensor_type;location;lat;lon;timestamp;P1;durP1;ratioP1;P2;durP2;ratioP2
69894;SDS011;57172;52.034;5.090;2024-01-30T00:00:21;26.40;;;13.20;;
69894;SDS011;57172;52.034;5.090;2024-01-30T00:02:48;24.80;;;13.40;;
69894;SDS011;57172;52.034;5.090;2024-01-30T00:05:15;26.17;;;12.77;;
69894;SDS011;57172;52.034;5.090;2024-01-30T00:07:42;22.67;;;13.02;;
69894;SDS011;57172;52.034;5.090;2024-01-30T00:10:09;21.95;;;12.50;;
69894;SDS011;57172;52.034;5.090;2024-01-30T00:12:36;21.20;;;9.98;;
69894;SDS011;57172;52.034;5.090;2024-01-30T00:15:03;20.37;;;12.10;;
69894;SDS011;57172;52.034;5.090;2024-01-30T00:17:31;21.63;;;11.32;;
69894;SDS011;57172;52.034;5.090;2024-01-30T00:19:58;23.50;;;12.52;;
69894;SDS011;57172;52.034;5.090;2024-01-30T00:22:25;23.73;;;11.65;;
69894;SDS011;57172;52.034;5.090;2024-01-30T00:24:52;22.63;;;12.02;;
69894;SDS011;57172;52.034;5.090;2024-01-30T00:27:19;21.53;;;11.10;;
69894;SDS011;57172;52.034;5.090;2024-01-30T00:29:46;24.92;;;11.63;;
69894;SDS011;57172;52.034;5.090;2024-01-30T00:32:12;24.52;;;11.90;;
69894;SDS011;57172;52.034;5.090;2024-01-30T00:34:41;24.88;;;11.68;;
69894;SDS011;57172;52.034;5.090;2024-01-30T00:37:08;19.83;;;11.15;;
69894;SDS011;57172;52.034;5.090;2024-01-30T00:39:35;20.03;;;11.13;;
69894;SDS011;57172;52.034;5.090;2024-01-30T00:42:02;24.00;;;11.90;;
69894;SDS011;57172;52.034;5.090;2024-01-30T00:44:29;23.02;;;11.60;;
69894;SDS011;57172;52.034;5.090;2024-01-30T00:46:56;22.60;;;12.27;;
69894;SDS011;57172;52.034;5.090;2024-01-30T00:49:23;21.48;;;11.52;;
69894;SDS011;57172;52.034;5.090;2024-01-30T00:51:50;23.60;;;11.93;;
69894;SDS011;57172;52.034;5.090;2024-01-30T00:54:17;19.70;;;11.25;;
69894;SDS011;57172;52.034;5.090;2024-01-30T00:56:44;23.15;;;11.88;;
69894;SDS011;57172;52.034;5.090;2024-01-30T00:59:11;21.40;;;11.75;;
69894;SDS011;57172;52.034;5.090;2024-01-30T01:01:38;20.85;;;12.20;;
69894;SDS011;57172;52.034;5.090;2024-01-30T01:04:05;19.63;;;11.07;;
69894;SDS011;57172;52.034;5.090;2024-01-30T01:06:33;22.92;;;12.02;;
69894;SDS011;57172;52.034;5.090;2024-01-30T01:09:00;21.27;;;11.75;;
69894;SDS011;57172;52.034;5.090;2024-01-30T01:11:30;18.48;;;10.95;;
69894;SDS011;57172;52.034;5.090;2024-01-30T01:13:57;20.40;;;11.65;;
69894;SDS011;57172;52.034;5.090;2024-01-30T01:16:24;22.00;;;11.67;;
69894;SDS011;57172;52.034;5.090;2024-01-30T01:18:51;22.77;;;11.95;;
69894;SDS011;57172;52.034;5.090;2024-01-30T01:21:18;20.90;;;12.45;;
69894;SDS011;57172;52.034;5.090;2024-01-30T01:23:45;22.88;;;12.68;;
69894;SDS011;57172;52.034;5.090;2024-01-30T01:26:12;23.27;;;12.43;;
69894;SDS011;57172;52.034;5.090;2024-01-30T01:28:40;22.77;;;12.40;;
69894;SDS011;57172;52.034;5.090;2024-01-30T01:31:07;24.17;;;12.00;;
69894;SDS011;57172;52.034;5.090;2024-01-30T01:33:34;23.90;;;12.23;;
69894;SDS011;57172;52.034;5.090;2024-01-30T01:36:03;21.73;;;12.63;;
69894;SDS011;57172;52.034;5.090;2024-01-30T01:38:30;20.52;;;11.93;;
69894;SDS011;57172;52.034;5.090;2024-01-30T01:40:57;23.83;;;12.10;;
69894;SDS011;57172;52.034;5.090;2024-01-30T01:43:24;21.60;;;11.85;;
69894;SDS011;57172;52.034;5.090;2024-01-30T01:45:51;22.45;;;12.23;;
69894;SDS011;57172;52.034;5.090;2024-01-30T01:48:18;21.20;;;12.00;;
69894;SDS011;57172;52.034;5.090;2024-01-30T01:50:45;21.85;;;11.57;;
69894;SDS011;57172;52.034;5.090;2024-01-30T01:53:12;23.50;;;12.43;;
69894;SDS011;57172;52.034;5.090;2024-01-30T01:55:40;21.63;;;12.23;;
69894;SDS011;57172;52.034;5.090;2024-01-30T01:58:07;19.80;;;11.63;;
69894;SDS011;57172;52.034;5.090;2024-01-30T02:00:35;22.13;;;12.43;;
69894;SDS011;57172;52.034;5.090;2024-01-30T02:03:06;24.17;;;11.98;;
69894;SDS011;57172;52.034;5.090;2024-01-30T02:05:36;21.97;;;11.83;;
69894;SDS011;57172;52.034;5.090;2024-01-30T02:08:03;21.20;;;11.38;;
69894;SDS011;57172;52.034;5.090;2024-01-30T02:10:31;24.20;;;11.65;;
69894;SDS011;57172;52.034;5.090;2024-01-30T02:12:58;20.80;;;11.60;;
69894;SDS011;57172;52.034;5.090;2024-01-30T02:15:25;21.75;;;11.02;;
69894;SDS011;57172;52.034;5.090;2024-01-30T02:17:52;20.10;;;11.23;;
69894;SDS011;57172;52.034;5.090;2024-01-30T02:20:19;20.20;;;11.55;;
69894;SDS011;57172;52.034;5.090;2024-01-30T02:22:46;23.45;;;11.63;;
69894;SDS011;57172;52.034;5.090;2024-01-30T02:25:14;20.00;;;11.40;;
69894;SDS011;57172;52.034;5.090;2024-01-30T02:27:41;22.58;;;12.23;;
69894;SDS011;57172;52.034;5.090;2024-01-30T02:30:08;20.97;;;11.90;;
69894;SDS011;57172;52.034;5.090;2024-01-30T02:32:36;21.58;;;11.35;;
69894;SDS011;57172;52.034;5.090;2024-01-30T02:35:03;22.05;;;11.10;;
69894;SDS011;57172;52.034;5.090;2024-01-30T02:37:30;21.10;;;11.38;;
69894;SDS011;57172;52.034;5.090;2024-01-30T02:39:57;23.02;;;11.45;;
69894;SDS011;57172;52.034;5.090;2024-01-30T02:42:24;20.67;;;11.00;;
69894;SDS011;57172;52.034;5.090;2024-01-30T02:44:50;23.05;;;11.30;;
69894;SDS011;57172;52.034;5.090;2024-01-30T02:47:17;24.55;;;11.43;;
69894;SDS011;57172;52.034;5.090;2024-01-30T02:49:44;21.65;;;11.57;;
69894;SDS011;57172;52.034;5.090;2024-01-30T02:52:11;20.08;;;10.98;;
69894;SDS011;57172;52.034;5.090;2024-01-30T02:54:38;21.67;;;11.60;;
69894;SDS011;57172;52.034;5.090;2024-01-30T02:57:05;23.85;;;11.30;;
69894;SDS011;57172;52.034;5.090;2024-01-30T02:59:32;21.15;;;10.95;;
69894;SDS011;57172;52.034;5.090;2024-01-30T03:02:02;23.83;;;11.27;;
69894;SDS011;57172;52.034;5.090;2024-01-30T03:04:29;19.65;;;11.07;;
69894;SDS011;57172;52.034;5.090;2024-01-30T03:06:56;21.03;;;11.40;;
69894;SDS011;57172;52.034;5.090;2024-01-30T03:09:23;21.45;;;10.82;;
69894;SDS011;57172;52.034;5.090;2024-01-30T03:11:50;20.65;;;11.13;;
69894;SDS011;57172;52.034;5.090;2024-01-30T03:14:17;20.77;;;11.13;;
69894;SDS011;57172;52.034;5.090;2024-01-30T03:16:44;20.63;;;10.95;;
69894;SDS011;57172;52.034;5.090;2024-01-30T03:19:11;17.80;;;10.83;;
69894;SDS011;57172;52.034;5.090;2024-01-30T03:21:38;18.00;;;10.68;;
69894;SDS011;57172;52.034;5.090;2024-01-30T03:24:05;19.38;;;11.18;;
69894;SDS011;57172;52.034;5.090;2024-01-30T03:26:32;18.98;;;10.27;;
69894;SDS011;57172;52.034;5.090;2024-01-30T03:28:59;19.70;;;10.93;;
69894;SDS011;57172;52.034;5.090;2024-01-30T03:31:26;19.40;;;10.63;;
69894;SDS011;57172;52.034;5.090;2024-01-30T03:33:53;21.25;;;10.88;;
69894;SDS011;57172;52.034;5.090;2024-01-30T03:36:20;20.00;;;11.18;;
69894;SDS011;57172;52.034;5.090;2024-01-30T03:38:47;20.30;;;11.18;;
69894;SDS011;57172;52.034;5.090;2024-01-30T03:41:13;16.92;;;9.68;;
69894;SDS011;57172;52.034;5.090;2024-01-30T03:43:40;19.63;;;10.67;;
69894;SDS011;57172;52.034;5.090;2024-01-30T03:46:07;16.92;;;8.75;;
69894;SDS011;57172;52.034;5.090;2024-01-30T03:48:34;19.13;;;10.25;;
69894;SDS011;57172;52.034;5.090;2024-01-30T03:51:02;18.45;;;10.48;;
69894;SDS011;57172;52.034;5.090;2024-01-30T03:53:29;18.58;;;10.55;;
69894;SDS011;57172;52.034;5.090;2024-01-30T03:55:56;19.50;;;10.00;;
69894;SDS011;57172;52.034;5.090;2024-01-30T03:58:23;19.02;;;9.15;;
69894;SDS011;57172;52.034;5.090;2024-01-30T04:00:50;17.27;;;8.88;;
69894;SDS011;57172;52.034;5.090;2024-01-30T04:03:18;16.00;;;9.10;;
69894;SDS011;57172;52.034;5.090;2024-01-30T04:05:44;18.30;;;9.63;;
69894;SDS011;57172;52.034;5.090;2024-01-30T04:08:11;17.60;;;9.10;;
69894;SDS011;57172;52.034;5.090;2024-01-30T04:10:38;17.70;;;9.70;;
69894;SDS011;57172;52.034;5.090;2024-01-30T04:13:06;18.25;;;9.73;;
69894;SDS011;57172;52.034;5.090;2024-01-30T04:15:37;15.23;;;8.27;;
69894;SDS011;57172;52.034;5.090;2024-01-30T04:18:04;17.88;;;9.15;;
69894;SDS011;57172;52.034;5.090;2024-01-30T04:20:31;16.43;;;9.43;;
69894;SDS011;57172;52.034;5.090;2024-01-30T04:22:59;18.33;;;9.65;;
69894;SDS011;57172;52.034;5.090;2024-01-30T04:25:26;19.27;;;9.80;;
69894;SDS011;57172;52.034;5.090;2024-01-30T04:27:53;17.20;;;9.30;;
69894;SDS011;57172;52.034;5.090;2024-01-30T04:30:20;17.42;;;8.65;;
69894;SDS011;57172;52.034;5.090;2024-01-30T04:32:47;15.23;;;8.20;;
69894;SDS011;57172;52.034;5.090;2024-01-30T04:35:14;17.48;;;9.52;;
69894;SDS011;57172;52.034;5.090;2024-01-30T04:37:41;18.30;;;9.35;;
69894;SDS011;57172;52.034;5.090;2024-01-30T04:40:08;16.70;;;9.15;;
69894;SDS011;57172;52.034;5.090;2024-01-30T04:42:36;18.17;;;9.50;;
69894;SDS011;57172;52.034;5.090;2024-01-30T04:45:03;17.93;;;8.83;;
69894;SDS011;57172;52.034;5.090;2024-01-30T04:47:30;15.30;;;8.77;;
69894;SDS011;57172;52.034;5.090;2024-01-30T04:49:57;16.10;;;8.40;;
69894;SDS011;57172;52.034;5.090;2024-01-30T04:52:24;15.30;;;8.20;;
69894;SDS011;57172;52.034;5.090;2024-01-30T04:54:51;21.35;;;9.70;;
69894;SDS011;57172;52.034;5.090;2024-01-30T04:57:17;17.33;;;8.80;;
69894;SDS011;57172;52.034;5.090;2024-01-30T04:59:44;16.35;;;8.30;;
69894;SDS011;57172;52.034;5.090;2024-01-30T05:02:11;14.98;;;8.02;;
69894;SDS011;57172;52.034;5.090;2024-01-30T05:04:38;14.23;;;8.07;;
69894;SDS011;57172;52.034;5.090;2024-01-30T05:07:07;14.98;;;8.00;;
69894;SDS011;57172;52.034;5.090;2024-01-30T05:09:34;15.23;;;7.77;;
69894;SDS011;57172;52.034;5.090;2024-01-30T05:12:00;15.55;;;8.73;;
69894;SDS011;57172;52.034;5.090;2024-01-30T05:14:27;19.10;;;8.18;;
69894;SDS011;57172;52.034;5.090;2024-01-30T05:16:54;15.30;;;7.95;;
69894;SDS011;57172;52.034;5.090;2024-01-30T05:19:21;13.77;;;6.15;;
69894;SDS011;57172;52.034;5.090;2024-01-30T05:21:50;15.07;;;7.57;;
69894;SDS011;57172;52.034;5.090;2024-01-30T05:24:16;14.43;;;7.28;;
69894;SDS011;57172;52.034;5.090;2024-01-30T05:26:46;15.80;;;8.02;;
69894;SDS011;57172;52.034;5.090;2024-01-30T05:29:14;15.30;;;8.15;;
69894;SDS011;57172;52.034;5.090;2024-01-30T05:31:41;15.85;;;8.35;;
69894;SDS011;57172;52.034;5.090;2024-01-30T05:34:08;14.53;;;7.43;;
69894;SDS011;57172;52.034;5.090;2024-01-30T05:36:35;13.68;;;7.65;;
69894;SDS011;57172;52.034;5.090;2024-01-30T05:39:02;17.38;;;8.43;;
69894;SDS011;57172;52.034;5.090;2024-01-30T05:41:33;13.38;;;7.00;;
69894;SDS011;57172;52.034;5.090;2024-01-30T05:44:00;16.02;;;8.45;;
69894;SDS011;57172;52.034;5.090;2024-01-30T05:46:27;17.27;;;8.37;;
69894;SDS011;57172;52.034;5.090;2024-01-30T05:48:53;14.20;;;7.30;;
69894;SDS011;57172;52.034;5.090;2024-01-30T05:51:20;10.40;;;5.80;;
69894;SDS011;57172;52.034;5.090;2024-01-30T05:53:47;16.27;;;8.20;;
69894;SDS011;57172;52.034;5.090;2024-01-30T05:56:14;14.43;;;7.60;;
69894;SDS011;57172;52.034;5.090;2024-01-30T05:58:41;11.93;;;6.07;;
69894;SDS011;57172;52.034;5.090;2024-01-30T06:01:09;15.98;;;8.52;;
69894;SDS011;57172;52.034;5.090;2024-01-30T06:03:36;15.02;;;8.10;;
69894;SDS011;57172;52.034;5.090;2024-01-30T06:06:03;13.35;;;7.05;;
69894;SDS011;57172;52.034;5.090;2024-01-30T06:08:30;10.20;;;5.32;;
69894;SDS011;57172;52.034;5.090;2024-01-30T06:10:57;13.33;;;7.13;;
69894;SDS011;57172;52.034;5.090;2024-01-30T06:13:24;15.45;;;7.63;;
69894;SDS011;57172;52.034;5.090;2024-01-30T06:15:51;13.15;;;8.00;;
69894;SDS011;57172;52.034;5.090;2024-01-30T06:18:18;15.13;;;6.85;;
69894;SDS011;57172;52.034;5.090;2024-01-30T06:20:45;14.85;;;7.38;;
69894;SDS011;57172;52.034;5.090;2024-01-30T06:23:12;13.17;;;7.10;;
69894;SDS011;57172;52.034;5.090;2024-01-30T06:25:39;14.80;;;6.85;;
69894;SDS011;57172;52.034;5.090;2024-01-30T06:28:06;12.80;;;6.15;;
69894;SDS011;57172;52.034;5.090;2024-01-30T06:30:33;14.75;;;6.72;;
69894;SDS011;57172;52.034;5.090;2024-01-30T06:32:59;15.45;;;7.45;;
69894;SDS011;57172;52.034;5.090;2024-01-30T06:35:27;13.63;;;7.67;;
69894;SDS011;57172;52.034;5.090;2024-01-30T06:37:55;13.07;;;7.00;;
69894;SDS011;57172;52.034;5.090;2024-01-30T06:40:22;12.07;;;6.43;;
69894;SDS011;57172;52.034;5.090;2024-01-30T06:42:49;13.07;;;7.13;;
69894;SDS011;57172;52.034;5.090;2024-01-30T06:45:16;14.57;;;7.78;;
69894;SDS011;57172;52.034;5.090;2024-01-30T06:47:43;11.93;;;6.40;;
69894;SDS011;57172;52.034;5.090;2024-01-30T06:50:10;14.40;;;7.80;;
69894;SDS011;57172;52.034;5.090;2024-01-30T06:52:37;12.57;;;6.45;;
69894;SDS011;57172;52.034;5.090;2024-01-30T06:55:04;13.70;;;7.28;;
69894;SDS011;57172;52.034;5.090;2024-01-30T06:57:31;15.77;;;7.50;;
69894;SDS011;57172;52.034;5.090;2024-01-30T06:59:58;14.67;;;7.60;;
69894;SDS011;57172;52.034;5.090;2024-01-30T07:02:25;12.88;;;6.85;;
69894;SDS011;57172;52.034;5.090;2024-01-30T07:04:52;16.60;;;7.70;;
69894;SDS011;57172;52.034;5.090;2024-01-30T07:07:19;14.35;;;6.80;;
69894;SDS011;57172;52.034;5.090;2024-01-30T07:09:46;13.30;;;6.60;;
69894;SDS011;57172;52.034;5.090;2024-01-30T07:12:16;14.53;;;6.83;;
69894;SDS011;57172;52.034;5.090;2024-01-30T07:14:43;14.20;;;7.43;;
69894;SDS011;57172;52.034;5.090;2024-01-30T07:17:10;12.20;;;6.57;;
69894;SDS011;57172;52.034;5.090;2024-01-30T07:19:37;14.98;;;7.40;;
69894;SDS011;57172;52.034;5.090;2024-01-30T07:22:04;16.48;;;7.45;;
69894;SDS011;57172;52.034;5.090;2024-01-30T07:24:30;14.47;;;7.77;;
69894;SDS011;57172;52.034;5.090;2024-01-30T07:26:57;14.65;;;7.30;;
69894;SDS011;57172;52.034;5.090;2024-01-30T07:29:24;15.45;;;7.72;;
69894;SDS011;57172;52.034;5.090;2024-01-30T07:31:51;14.07;;;7.68;;
69894;SDS011;57172;52.034;5.090;2024-01-30T07:34:18;13.32;;;7.30;;
69894;SDS011;57172;52.034;5.090;2024-01-30T07:36:45;15.03;;;7.97;;
69894;SDS011;57172;52.034;5.090;2024-01-30T07:39:13;14.35;;;7.00;;
69894;SDS011;57172;52.034;5.090;2024-01-30T07:41:40;15.77;;;7.38;;
69894;SDS011;57172;52.034;5.090;2024-01-30T07:44:07;17.48;;;7.95;;
69894;SDS011;57172;52.034;5.090;2024-01-30T07:46:34;14.00;;;6.53;;
69894;SDS011;57172;52.034;5.090;2024-01-30T07:49:01;13.00;;;6.97;;
69894;SDS011;57172;52.034;5.090;2024-01-30T07:51:28;11.85;;;6.88;;
69894;SDS011;57172;52.034;5.090;2024-01-30T07:53:57;13.73;;;7.32;;
69894;SDS011;57172;52.034;5.090;2024-01-30T07:56:24;14.15;;;7.18;;
69894;SDS011;57172;52.034;5.090;2024-01-30T07:58:52;12.73;;;6.80;;
69894;SDS011;57172;52.034;5.090;2024-01-30T08:01:19;13.03;;;6.80;;
69894;SDS011;57172;52.034;5.090;2024-01-30T08:03:46;12.30;;;6.57;;
69894;SDS011;57172;52.034;5.090;2024-01-30T08:06:13;15.55;;;7.40;;
69894;SDS011;57172;52.034;5.090;2024-01-30T08:08:40;13.35;;;6.50;;
69894;SDS011;57172;52.034;5.090;2024-01-30T08:11:07;15.02;;;6.75;;
69894;SDS011;57172;52.034;5.090;2024-01-30T08:13:34;15.67;;;7.17;;
69894;SDS011;57172;52.034;5.090;2024-01-30T08:16:01;17.10;;;7.13;;
69894;SDS011;57172;52.034;5.090;2024-01-30T08:18:27;14.75;;;7.90;;
69894;SDS011;57172;52.034;5.090;2024-01-30T08:20:55;13.65;;;7.30;;
69894;SDS011;57172;52.034;5.090;2024-01-30T08:23:21;12.82;;;6.43;;
69894;SDS011;57172;52.034;5.090;2024-01-30T08:25:48;18.73;;;8.17;;
69894;SDS011;57172;52.034;5.090;2024-01-30T08:28:15;15.30;;;7.93;;
69894;SDS011;57172;52.034;5.090;2024-01-30T08:30:46;15.52;;;7.90;;
69894;SDS011;57172;52.034;5.090;2024-01-30T08:33:14;17.10;;;7.22;;
69894;SDS011;57172;52.034;5.090;2024-01-30T08:35:41;14.65;;;6.85;;
69894;SDS011;57172;52.034;5.090;2024-01-30T08:38:08;14.90;;;7.80;;
69894;SDS011;57172;52.034;5.090;2024-01-30T08:40:35;15.77;;;7.97;;
69894;SDS011;57172;52.034;5.090;2024-01-30T08:43:02;16.05;;;7.78;;
69894;SDS011;57172;52.034;5.090;2024-01-30T08:45:30;15.85;;;7.15;;
69894;SDS011;57172;52.034;5.090;2024-01-30T08:47:57;15.75;;;8.23;;
69894;SDS011;57172;52.034;5.090;2024-01-30T08:50:24;17.67;;;7.90;;
69894;SDS011;57172;52.034;5.090;2024-01-30T08:52:51;13.35;;;6.22;;
69894;SDS011;57172;52.034;5.090;2024-01-30T08:55:18;17.33;;;7.65;;
69894;SDS011;57172;52.034;5.090;2024-01-30T08:57:45;18.23;;;7.90;;
69894;SDS011;57172;52.034;5.090;2024-01-30T09:00:12;15.38;;;7.65;;
69894;SDS011;57172;52.034;5.090;2024-01-30T09:02:39;15.37;;;7.40;;
69894;SDS011;57172;52.034;5.090;2024-01-30T09:05:06;14.40;;;7.97;;
69894;SDS011;57172;52.034;5.090;2024-01-30T09:07:33;14.98;;;7.65;;
69894;SDS011;57172;52.034;5.090;2024-01-30T09:10:00;18.88;;;8.40;;
69894;SDS011;57172;52.034;5.090;2024-01-30T09:12:27;16.38;;;8.13;;
69894;SDS011;57172;52.034;5.090;2024-01-30T09:14:54;16.67;;;7.90;;
69894;SDS011;57172;52.034;5.090;2024-01-30T09:17:21;15.07;;;7.22;;
69894;SDS011;57172;52.034;5.090;2024-01-30T09:19:48;16.67;;;7.82;;
69894;SDS011;57172;52.034;5.090;2024-01-30T09:22:15;16.08;;;8.25;;
69894;SDS011;57172;52.034;5.090;2024-01-30T09:24:42;16.50;;;7.97;;
69894;SDS011;57172;52.034;5.090;2024-01-30T09:27:09;16.67;;;7.60;;
69894;SDS011;57172;52.034;5.090;2024-01-30T09:29:36;17.08;;;8.13;;
69894;SDS011;57172;52.034;5.090;2024-01-30T09:32:03;18.90;;;8.52;;
69894;SDS011;57172;52.034;5.090;2024-01-30T09:34:32;16.08;;;8.00;;
69894;SDS011;57172;52.034;5.090;2024-01-30T09:36:59;17.48;;;8.00;;
69894;SDS011;57172;52.034;5.090;2024-01-30T09:39:26;18.33;;;7.70;;
69894;SDS011;57172;52.034;5.090;2024-01-30T09:45:21;15.65;;;7.70;;
69894;SDS011;57172;52.034;5.090;2024-01-30T09:47:51;17.45;;;7.63;;
69894;SDS011;57172;52.034;5.090;2024-01-30T09:50:19;19.88;;;7.82;;
69894;SDS011;57172;52.034;5.090;2024-01-30T09:52:47;15.83;;;7.00;;
69894;SDS011;57172;52.034;5.090;2024-01-30T09:55:14;17.27;;;6.72;;
69894;SDS011;57172;52.034;5.090;2024-01-30T09:57:41;15.18;;;7.70;;
69894;SDS011;57172;52.034;5.090;2024-01-30T10:00:09;15.77;;;7.63;;
69894;SDS011;57172;52.034;5.090;2024-01-30T10:02:39;15.95;;;7.65;;
69894;SDS011;57172;52.034;5.090;2024-01-30T10:05:07;14.57;;;8.07;;
69894;SDS011;57172;52.034;5.090;2024-01-30T10:07:35;14.43;;;7.75;;
69894;SDS011;57172;52.034;5.090;2024-01-30T10:10:02;15.38;;;8.05;;
69894;SDS011;57172;52.034;5.090;2024-01-30T10:12:31;18.83;;;7.18;;
69894;SDS011;57172;52.034;5.090;2024-01-30T10:14:58;16.52;;;7.45;;
69894;SDS011;57172;52.034;5.090;2024-01-30T10:17:25;14.20;;;7.43;;
69894;SDS011;57172;52.034;5.090;2024-01-30T10:19:59;18.48;;;7.30;;
69894;SDS011;57172;52.034;5.090;2024-01-30T10:22:27;12.90;;;6.65;;
69894;SDS011;57172;52.034;5.090;2024-01-30T10:24:55;13.15;;;6.63;;
69894;SDS011;57172;52.034;5.090;2024-01-30T10:27:25;13.95;;;6.95;;
69894;SDS011;57172;52.034;5.090;2024-01-30T10:29:56;12.27;;;6.60;;
69894;SDS011;57172;52.034;5.090;2024-01-30T10:32:23;13.95;;;6.80;;
69894;SDS011;57172;52.034;5.090;2024-01-30T10:34:52;13.35;;;6.07;;
69894;SDS011;57172;52.034;5.090;2024-01-30T10:37:19;17.42;;;6.75;;
69894;SDS011;57172;52.034;5.090;2024-01-30T10:39:52;17.30;;;6.78;;
69894;SDS011;57172;52.034;5.090;2024-01-30T10:42:22;13.87;;;6.37;;
69894;SDS011;57172;52.034;5.090;2024-01-30T10:47:35;12.02;;;5.95;;
69894;SDS011;57172;52.034;5.090;2024-01-30T10:50:03;13.70;;;5.95;;
69894;SDS011;57172;52.034;5.090;2024-01-30T10:52:31;11.18;;;5.38;;
69894;SDS011;57172;52.034;5.090;2024-01-30T10:54:59;14.23;;;6.53;;
69894;SDS011;57172;52.034;5.090;2024-01-30T10:57:27;13.90;;;6.50;;
69894;SDS011;57172;52.034;5.090;2024-01-30T10:59:55;13.73;;;6.38;;
69894;SDS011;57172;52.034;5.090;2024-01-30T11:02:23;13.68;;;6.35;;
69894;SDS011;57172;52.034;5.090;2024-01-30T11:04:55;13.00;;;6.32;;
69894;SDS011;57172;52.034;5.090;2024-01-30T11:07:27;8.10;;;4.90;;
69894;SDS011;57172;52.034;5.090;2024-01-30T11:12:27;10.38;;;4.32;;
69894;SDS011;57172;52.034;5.090;2024-01-30T11:17:50;10.05;;;3.33;;
69894;SDS011;57172;52.034;5.090;2024-01-30T11:20:20;6.43;;;2.60;;
69894;SDS011;57172;52.034;5.090;2024-01-30T11:22:47;7.90;;;2.20;;
69894;SDS011;57172;52.034;5.090;2024-01-30T11:25:17;7.85;;;2.40;;
69894;SDS011;57172;52.034;5.090;2024-01-30T11:27:46;8.45;;;2.20;;
69894;SDS011;57172;52.034;5.090;2024-01-30T11:35:25;10.80;;;2.10;;
69894;SDS011;57172;52.034;5.090;2024-01-30T11:37:52;6.90;;;2.10;;
69894;SDS011;57172;52.034;5.090;2024-01-30T11:40:21;5.47;;;2.10;;
69894;SDS011;57172;52.034;5.090;2024-01-30T11:42:48;6.50;;;2.10;;
69894;SDS011;57172;52.034;5.090;2024-01-30T11:45:17;5.80;;;2.10;;
69894;SDS011;57172;52.034;5.090;2024-01-30T11:47:44;5.95;;;2.05;;
69894;SDS011;57172;52.034;5.090;2024-01-30T11:50:11;9.63;;;1.80;;
69894;SDS011;57172;52.034;5.090;2024-01-30T11:52:38;6.82;;;2.20;;
69894;SDS011;57172;52.034;5.090;2024-01-30T11:55:05;3.42;;;2.00;;
69894;SDS011;57172;52.034;5.090;2024-01-30T11:57:35;6.43;;;2.20;;
69894;SDS011;57172;52.034;5.090;2024-01-30T12:00:04;5.30;;;2.53;;
69894;SDS011;57172;52.034;5.090;2024-01-30T12:02:37;5.40;;;2.70;;
69894;SDS011;57172;52.034;5.090;2024-01-30T12:05:06;7.95;;;3.55;;
69894;SDS011;57172;52.034;5.090;2024-01-30T12:07:33;5.57;;;2.47;;
69894;SDS011;57172;52.034;5.090;2024-01-30T12:10:01;6.43;;;3.10;;
69894;SDS011;57172;52.034;5.090;2024-01-30T12:12:29;7.35;;;2.38;;
69894;SDS011;57172;52.034;5.090;2024-01-30T12:14:56;6.93;;;2.55;;
69894;SDS011;57172;52.034;5.090;2024-01-30T12:17:32;4.93;;;2.30;;
69894;SDS011;57172;52.034;5.090;2024-01-30T12:20:03;6.20;;;2.40;;
69894;SDS011;57172;52.034;5.090;2024-01-30T12:22:37;5.33;;;1.67;;
69894;SDS011;57172;52.034;5.090;2024-01-30T12:25:07;5.05;;;1.90;;
69894;SDS011;57172;52.034;5.090;2024-01-30T12:27:35;3.78;;;1.75;;
69894;SDS011;57172;52.034;5.090;2024-01-30T12:30:06;6.57;;;2.53;;
69894;SDS011;57172;52.034;5.090;2024-01-30T12:32:41;7.60;;;2.25;;
69894;SDS011;57172;52.034;5.090;2024-01-30T12:35:13;7.00;;;2.30;;
69894;SDS011;57172;52.034;5.090;2024-01-30T12:37:41;4.05;;;1.95;;
69894;SDS011;57172;52.034;5.090;2024-01-30T12:40:10;6.43;;;2.38;;
69894;SDS011;57172;52.034;5.090;2024-01-30T12:42:41;5.65;;;2.10;;
69894;SDS011;57172;52.034;5.090;2024-01-30T12:45:09;5.18;;;1.88;;
69894;SDS011;57172;52.034;5.090;2024-01-30T12:47:36;5.27;;;2.37;;
69894;SDS011;57172;52.034;5.090;2024-01-30T12:50:03;4.22;;;1.95;;
69894;SDS011;57172;52.034;5.090;2024-01-30T12:52:31;6.65;;;1.50;;
69894;SDS011;57172;52.034;5.090;2024-01-30T12:54:58;2.58;;;1.52;;
69894;SDS011;57172;52.034;5.090;2024-01-30T12:57:25;3.45;;;1.45;;
69894;SDS011;57172;52.034;5.090;2024-01-30T12:59:52;4.37;;;1.40;;
69894;SDS011;57172;52.034;5.090;2024-01-30T13:02:19;4.25;;;1.48;;
69894;SDS011;57172;52.034;5.090;2024-01-30T13:04:46;2.75;;;1.20;;
69894;SDS011;57172;52.034;5.090;2024-01-30T13:07:16;3.30;;;1.50;;
69894;SDS011;57172;52.034;5.090;2024-01-30T13:09:43;2.88;;;1.10;;
69894;SDS011;57172;52.034;5.090;2024-01-30T13:12:10;2.20;;;1.27;;
69894;SDS011;57172;52.034;5.090;2024-01-30T13:14:37;4.30;;;1.40;;
69894;SDS011;57172;52.034;5.090;2024-01-30T13:17:04;1.77;;;1.20;;
69894;SDS011;57172;52.034;5.090;2024-01-30T13:19:31;4.35;;;1.45;;
69894;SDS011;57172;52.034;5.090;2024-01-30T13:21:58;3.28;;;1.20;;
69894;SDS011;57172;52.034;5.090;2024-01-30T13:24:25;4.50;;;1.40;;
69894;SDS011;57172;52.034;5.090;2024-01-30T13:26:53;5.78;;;1.30;;
69894;SDS011;57172;52.034;5.090;2024-01-30T13:29:20;5.05;;;1.42;;
69894;SDS011;57172;52.034;5.090;2024-01-30T13:31:46;5.25;;;1.40;;
69894;SDS011;57172;52.034;5.090;2024-01-30T13:34:15;6.43;;;1.50;;
69894;SDS011;57172;52.034;5.090;2024-01-30T13:36:42;4.43;;;1.27;;
69894;SDS011;57172;52.034;5.090;2024-01-30T13:39:09;6.43;;;1.23;;
69894;SDS011;57172;52.034;5.090;2024-01-30T13:41:37;4.90;;;1.40;;
69894;SDS011;57172;52.034;5.090;2024-01-30T13:44:04;5.47;;;1.35;;
69894;SDS011;57172;52.034;5.090;2024-01-30T13:46:31;6.80;;;1.80;;
69894;SDS011;57172;52.034;5.090;2024-01-30T13:48:58;4.70;;;1.37;;
69894;SDS011;57172;52.034;5.090;2024-01-30T13:51:26;7.18;;;1.60;;
69894;SDS011;57172;52.034;5.090;2024-01-30T13:53:54;3.92;;;1.67;;
69894;SDS011;57172;52.034;5.090;2024-01-30T13:56:20;5.63;;;1.50;;
69894;SDS011;57172;52.034;5.090;2024-01-30T13:58:48;4.20;;;1.42;;
69894;SDS011;57172;52.034;5.090;2024-01-30T14:01:16;6.57;;;1.40;;
69894;SDS011;57172;52.034;5.090;2024-01-30T14:03:44;3.40;;;1.40;;
69894;SDS011;57172;52.034;5.090;2024-01-30T14:06:11;6.35;;;1.83;;
69894;SDS011;57172;52.034;5.090;2024-01-30T14:08:38;7.20;;;1.55;;
69894;SDS011;57172;52.034;5.090;2024-01-30T14:11:08;9.52;;;1.75;;
69894;SDS011;57172;52.034;5.090;2024-01-30T14:13:36;9.33;;;1.90;;
69894;SDS011;57172;52.034;5.090;2024-01-30T14:16:03;3.45;;;1.50;;
69894;SDS011;57172;52.034;5.090;2024-01-30T14:18:32;7.93;;;1.85;;
69894;SDS011;57172;52.034;5.090;2024-01-30T14:20:58;6.28;;;1.90;;
69894;SDS011;57172;52.034;5.090;2024-01-30T14:23:25;9.57;;;1.73;;
69894;SDS011;57172;52.034;5.090;2024-01-30T14:25:52;4.30;;;2.10;;
69894;SDS011;57172;52.034;5.090;2024-01-30T14:28:19;5.00;;;1.85;;
69894;SDS011;57172;52.034;5.090;2024-01-30T14:30:46;5.32;;;2.08;;
69894;SDS011;57172;52.034;5.090;2024-01-30T14:33:13;4.80;;;2.20;;
69894;SDS011;57172;52.034;5.090;2024-01-30T14:35:41;6.45;;;2.08;;
69894;SDS011;57172;52.034;5.090;2024-01-30T14:38:08;9.23;;;3.03;;
69894;SDS011;57172;52.034;5.090;2024-01-30T14:40:37;7.15;;;2.42;;
69894;SDS011;57172;52.034;5.090;2024-01-30T14:43:05;7.18;;;2.90;;
69894;SDS011;57172;52.034;5.090;2024-01-30T14:45:32;9.23;;;3.28;;
69894;SDS011;57172;52.034;5.090;2024-01-30T14:47:58;6.85;;;2.85;;
69894;SDS011;57172;52.034;5.090;2024-01-30T14:50:26;7.43;;;2.50;;